Portada
METAR-TAF:

METAR-TAF

Aeropuertos :

Bergerac, Francia

latitud: 44-49N, longitud: 000-31E, altitud: 51 m

Observación

El informe se hizo hace 20 minutos, a las 19:30 UTC
Viento 2 kt del sur-sureste
Temperatura 11°C
Humedad 76%
Presión 1026 hPa
Visibilidad 10 km o más
sin nubes por debajo de 1500 m y sin presencia de cumulonimbus.

METAR: LFBE 281930Z AUTO 15002KT CAVOK 11/07 Q1026 NOSIG

Hora: 21:50 (19:50 UTC)

Pronóstico

El informe se hizo hace 8 horas y 50 minutos, a las 11:00 UTC
Pronóstico válido del 28 a las 12 UTC al 29 a las 12 UTC
Viento 5 kt del sur-suroeste
Visibilidad 10 km o más
sin nubes por debajo de 1500 m y sin presencia de cumulonimbus.
Probabilidad 30% :
Temporalmente
del 28 a las 12 UTC al 28 a las 18 UTC
Nubes dispersas a una altura de 4000 ft, Cumulus congestus.

TAF: LFBE 281100Z 2812/2912 20005KT CAVOK PROB30 TEMPO 2812/2818 SCT040TCU

Observaciones y pronósticos meteorológicos de más de 4000 aeropuertos (mensajes METAR y TAF).

Los puntos amarillos y rojos representan las estaciones disponibles.

Ponga el ratón en el punto deseado para ver el nombre de la estación.

Haga clic para ver las observaciones y los pronósticos meteorológicos.

Para cambiar el mapa : haga clic en los botones verdes con una cruz de color negro para hacer un zoom, en el botón verde con un guión para alejar o en las flechas verdes para mapas adyacentes.


METAR-TAF: